createdAt,value
2018-11-10T00:00:53.710Z,24.87
2018-11-10T00:03:21.967Z,24.77
2018-11-10T00:05:50.509Z,28.12
2018-11-10T00:08:18.854Z,26.40
2018-11-10T00:10:47.500Z,27.67
2018-11-10T00:13:16.041Z,27.95
2018-11-10T00:15:44.572Z,27.93
2018-11-10T00:18:12.855Z,25.00
2018-11-10T00:20:41.399Z,25.70
2018-11-10T00:23:09.759Z,26.33
2018-11-10T00:28:15.519Z,27.57
2018-11-10T00:30:44.422Z,25.57
2018-11-10T00:33:12.679Z,26.40
2018-11-10T00:35:41.290Z,27.90
2018-11-10T00:38:09.954Z,25.03
2018-11-10T00:40:38.380Z,24.87
2018-11-10T00:43:07.268Z,26.23
2018-11-10T00:45:35.871Z,28.50
2018-11-10T00:48:04.643Z,25.52
2018-11-10T00:50:33.444Z,25.00
2018-11-10T00:53:02.383Z,24.23
2018-11-10T00:55:30.988Z,24.23
2018-11-10T00:57:59.240Z,24.97
2018-11-10T01:00:27.791Z,24.72
2018-11-10T01:02:56.376Z,26.70
2018-11-10T01:05:24.651Z,25.93
2018-11-10T01:07:52.927Z,24.47
2018-11-10T01:10:21.814Z,26.27
2018-11-10T01:12:50.104Z,21.90
2018-11-10T01:15:18.636Z,25.00
2018-11-10T01:17:46.882Z,24.20
2018-11-10T01:20:15.293Z,25.50
2018-11-10T01:22:43.782Z,23.97
2018-11-10T01:25:12.203Z,24.07
2018-11-10T01:27:40.677Z,25.70
2018-11-10T01:30:12.608Z,25.57
2018-11-10T01:32:41.419Z,22.50
2018-11-10T01:35:10.307Z,24.43
2018-11-10T01:37:39.007Z,24.10
2018-11-10T01:40:09.219Z,24.67
2018-11-10T01:42:37.865Z,25.80
2018-11-10T01:45:08.733Z,23.67
2018-11-10T01:47:37.533Z,24.00
2018-11-10T01:50:06.557Z,23.77
2018-11-10T01:52:34.841Z,24.37
2018-11-10T01:55:03.216Z,24.00
2018-11-10T01:57:31.816Z,25.07
2018-11-10T02:00:00.192Z,24.23
2018-11-10T02:02:29.614Z,26.30
2018-11-10T02:04:58.051Z,23.07
2018-11-10T02:07:26.589Z,22.30
2018-11-10T02:09:55.146Z,23.00
2018-11-10T02:12:23.409Z,22.23
2018-11-10T02:14:51.905Z,24.47
2018-11-10T02:17:20.441Z,23.95
2018-11-10T02:19:49.036Z,24.20
2018-11-10T02:22:17.621Z,25.20
2018-11-10T02:24:46.031Z,24.47
2018-11-10T02:27:21.325Z,25.27
2018-11-10T02:29:51.911Z,26.00
2018-11-10T02:32:20.749Z,23.77
2018-11-10T02:34:49.167Z,24.07
2018-11-10T02:37:17.780Z,24.43
2018-11-10T02:39:46.321Z,25.23
2018-11-10T02:42:14.914Z,24.00
2018-11-10T02:44:43.175Z,21.57
2018-11-10T02:47:11.440Z,20.90
2018-11-10T02:49:39.732Z,21.77
2018-11-10T02:52:08.007Z,21.33
2018-11-10T02:54:36.264Z,22.07
2018-11-10T02:57:05.723Z,21.82
2018-11-10T02:59:34.022Z,21.37
2018-11-10T03:02:02.441Z,21.63
2018-11-10T03:04:30.816Z,22.40
2018-11-10T03:06:59.147Z,23.33
2018-11-10T03:09:27.679Z,23.93
2018-11-10T03:11:56.275Z,22.80
2018-11-10T03:14:24.541Z,22.63
2018-11-10T03:16:53.352Z,20.68
2018-11-10T03:19:21.813Z,22.23
2018-11-10T03:21:50.377Z,24.23
2018-11-10T03:24:18.669Z,22.20
2018-11-10T03:26:46.980Z,19.87
2018-11-10T03:29:15.619Z,21.40
2018-11-10T03:31:44.036Z,22.73
2018-11-10T03:34:12.584Z,21.87
2018-11-10T03:36:41.136Z,22.60
2018-11-10T03:39:11.535Z,21.53
2018-11-10T03:41:39.994Z,21.17
2018-11-10T03:44:09.630Z,21.63
2018-11-10T03:46:38.415Z,22.35
2018-11-10T03:49:07.276Z,21.90
2018-11-10T03:51:35.704Z,22.10
2018-11-10T03:54:04.460Z,20.47
2018-11-10T03:56:33.063Z,19.37
2018-11-10T03:59:01.603Z,21.12
2018-11-10T04:01:29.884Z,19.70
2018-11-10T04:03:58.152Z,21.50
2018-11-10T04:06:26.744Z,19.37
2018-11-10T04:08:55.753Z,21.67
2018-11-10T04:11:24.051Z,22.30
2018-11-10T04:13:52.617Z,23.10
2018-11-10T04:16:21.679Z,20.95
2018-11-10T04:18:49.935Z,22.20
2018-11-10T04:21:18.257Z,23.20
2018-11-10T04:23:46.837Z,21.03
2018-11-10T04:26:15.416Z,23.00
2018-11-10T04:28:43.977Z,21.90
2018-11-10T04:31:12.511Z,22.10
2018-11-10T04:33:41.431Z,22.40
2018-11-10T04:36:09.939Z,22.27
2018-11-10T04:38:38.511Z,19.57
2018-11-10T04:41:07.625Z,20.10
2018-11-10T04:43:35.887Z,19.57
2018-11-10T04:46:04.425Z,20.32
2018-11-10T04:48:32.946Z,21.53
2018-11-10T04:51:01.214Z,23.07
2018-11-10T04:53:29.492Z,22.13
2018-11-10T04:55:57.831Z,21.47
2018-11-10T04:58:26.109Z,23.07
2018-11-10T05:00:54.368Z,23.27
2018-11-10T05:03:23.068Z,22.90
2018-11-10T05:05:51.475Z,22.10
2018-11-10T05:08:19.737Z,22.77
2018-11-10T05:10:48.429Z,19.97
2018-11-10T05:13:16.704Z,21.63
2018-11-10T05:15:45.616Z,20.72
2018-11-10T05:18:14.188Z,19.80
2018-11-10T05:20:42.705Z,20.10
2018-11-10T05:23:10.962Z,20.77
2018-11-10T05:25:39.539Z,19.80
2018-11-10T05:28:08.036Z,21.10
2018-11-10T05:30:36.303Z,20.00
2018-11-10T05:33:05.315Z,20.30
2018-11-10T05:35:33.572Z,19.60
2018-11-10T05:38:01.940Z,20.80
2018-11-10T05:40:30.208Z,18.70
2018-11-10T05:42:58.740Z,19.83
2018-11-10T05:45:27.015Z,19.27
2018-11-10T05:47:55.719Z,21.57
2018-11-10T05:50:24.325Z,20.40
2018-11-10T05:52:53.431Z,20.80
2018-11-10T05:55:22.560Z,21.52
2018-11-10T05:57:50.863Z,21.10
2018-11-10T06:00:19.840Z,20.20
2018-11-10T06:02:48.436Z,20.65
2018-11-10T06:05:16.711Z,21.67
2018-11-10T06:07:44.983Z,19.33
2018-11-10T06:10:13.633Z,20.02
2018-11-10T06:12:42.532Z,17.90
2018-11-10T06:15:11.045Z,19.30
2018-11-10T06:17:39.618Z,17.17
2018-11-10T06:20:10.503Z,19.10
2018-11-10T06:22:38.965Z,18.57
2018-11-10T06:25:08.024Z,16.30
2018-11-10T06:27:36.292Z,15.93
2018-11-10T06:30:06.133Z,16.20
2018-11-10T06:32:34.766Z,16.30
2018-11-10T06:35:03.875Z,19.10
2018-11-10T06:37:32.175Z,18.80
2018-11-10T06:40:00.681Z,17.47
2018-11-10T06:42:28.984Z,17.27
2018-11-10T06:44:57.825Z,18.98
2018-11-10T06:47:26.329Z,17.80
2018-11-10T06:49:54.850Z,18.30
2018-11-10T06:52:23.407Z,17.67
2018-11-10T06:54:51.828Z,18.43
2018-11-10T06:57:20.075Z,19.60
2018-11-10T06:59:48.508Z,15.50
2018-11-10T07:02:17.052Z,16.50
2018-11-10T07:04:45.576Z,18.48
2018-11-10T07:07:14.001Z,15.43
2018-11-10T07:09:42.815Z,17.90
2018-11-10T07:12:11.455Z,17.87
2018-11-10T07:14:40.032Z,19.33
2018-11-10T07:17:08.594Z,16.73
2018-11-10T07:19:37.264Z,17.67
2018-11-10T07:22:05.986Z,16.80
2018-11-10T07:24:34.246Z,16.77
2018-11-10T07:27:02.784Z,17.60
2018-11-10T07:29:31.371Z,17.20
2018-11-10T07:32:00.016Z,16.30
2018-11-10T07:34:28.695Z,15.03
2018-11-10T07:36:57.337Z,14.50
2018-11-10T07:39:25.606Z,16.07
2018-11-10T07:41:54.041Z,15.13
2018-11-10T07:44:22.722Z,14.83
2018-11-10T07:46:51.427Z,14.23
2018-11-10T07:49:20.362Z,14.87
2018-11-10T07:51:48.876Z,14.40
2018-11-10T07:54:17.295Z,14.90
2018-11-10T07:56:46.256Z,13.48
2018-11-10T07:59:14.612Z,13.33
2018-11-10T08:01:42.975Z,12.63
2018-11-10T08:04:11.600Z,13.10
2018-11-10T08:06:40.016Z,13.97
2018-11-10T08:09:09.308Z,13.27
2018-11-10T08:11:38.064Z,11.83
2018-11-10T08:14:06.858Z,12.40
2018-11-10T08:16:35.943Z,13.00
2018-11-10T08:19:04.856Z,13.17
2018-11-10T08:21:33.251Z,11.00
2018-11-10T08:24:01.530Z,12.80
2018-11-10T08:26:30.202Z,12.30
2018-11-10T08:28:58.742Z,13.07
2018-11-10T08:31:27.108Z,12.23
2018-11-10T08:33:55.690Z,11.15
2018-11-10T08:36:24.527Z,11.53
2018-11-10T08:38:52.811Z,13.80
2018-11-10T08:41:21.355Z,11.97
2018-11-10T08:43:49.655Z,11.30
2018-11-10T08:46:18.164Z,10.87
2018-11-10T08:48:46.624Z,12.17
2018-11-10T08:51:15.402Z,10.43
2018-11-10T08:53:43.679Z,10.20
2018-11-10T08:56:12.183Z,10.33
2018-11-10T08:58:41.064Z,9.57
2018-11-10T09:01:09.911Z,10.90
2018-11-10T09:03:38.192Z,10.43
2018-11-10T09:06:06.828Z,10.20
2018-11-10T09:08:35.436Z,9.58
2018-11-10T09:11:03.913Z,10.67
2018-11-10T09:13:32.297Z,10.60
2018-11-10T09:16:00.671Z,11.10
2018-11-10T09:18:28.948Z,9.83
2018-11-10T09:20:57.579Z,10.50
2018-11-10T09:23:26.324Z,9.80
2018-11-10T09:25:54.902Z,9.78
2018-11-10T09:28:23.203Z,10.27
2018-11-10T09:30:51.881Z,9.83
2018-11-10T09:33:20.271Z,9.50
2018-11-10T09:35:48.619Z,9.20
2018-11-10T09:38:16.915Z,9.27
2018-11-10T09:40:45.216Z,9.97
2018-11-10T09:43:13.522Z,11.00
2018-11-10T09:45:42.071Z,9.63
2018-11-10T09:48:10.323Z,8.63
2018-11-10T09:50:38.625Z,8.70
2018-11-10T09:53:07.367Z,8.43
2018-11-10T09:55:36.262Z,8.70
2018-11-10T09:58:06.921Z,7.40
2018-11-10T10:00:35.194Z,7.77
2018-11-10T10:03:03.730Z,7.95
2018-11-10T10:05:32.033Z,7.50
2018-11-10T10:08:00.574Z,8.50
2018-11-10T10:10:28.844Z,6.93
2018-11-10T10:12:57.412Z,8.35
2018-11-10T10:15:26.024Z,8.20
2018-11-10T10:17:54.556Z,8.05
2018-11-10T10:20:23.133Z,8.10
2018-11-10T10:22:51.410Z,8.77
2018-11-10T10:25:20.373Z,7.40
2018-11-10T10:27:49.471Z,8.27
2018-11-10T10:30:19.815Z,8.63
2018-11-10T10:32:48.728Z,8.70
2018-11-10T10:35:17.425Z,9.85
2018-11-10T10:37:47.323Z,9.95
2018-11-10T10:40:16.535Z,9.15
2018-11-10T10:42:45.633Z,10.70
2018-11-10T10:45:17.134Z,11.53
2018-11-10T10:47:45.754Z,11.10
2018-11-10T10:50:15.373Z,10.30
2018-11-10T10:52:44.274Z,10.23
2018-11-10T10:55:14.154Z,11.30
2018-11-10T10:57:43.722Z,11.40
2018-11-10T11:00:18.553Z,10.80
2018-11-10T11:02:52.339Z,10.83
2018-11-10T11:05:26.483Z,10.55
2018-11-10T11:07:55.716Z,12.80
2018-11-10T11:10:24.263Z,10.83
2018-11-10T11:12:52.834Z,12.30
2018-11-10T11:15:21.603Z,11.57
2018-11-10T11:17:50.054Z,11.57
2018-11-10T11:20:18.767Z,11.40
2018-11-10T11:22:47.412Z,12.50
2018-11-10T11:25:15.984Z,11.80
2018-11-10T11:27:44.570Z,12.10
2018-11-10T11:30:13.359Z,12.63
2018-11-10T11:32:41.889Z,11.48
2018-11-10T11:35:12.023Z,12.43
2018-11-10T11:37:41.872Z,11.93
2018-11-10T11:40:12.519Z,12.13
2018-11-10T11:42:41.511Z,12.80
2018-11-10T11:45:11.971Z,11.20
2018-11-10T11:47:41.563Z,12.13
2018-11-10T11:50:11.442Z,12.10
2018-11-10T11:52:40.380Z,12.27
2018-11-10T11:55:10.522Z,12.50
2018-11-10T11:57:39.132Z,13.00
2018-11-10T12:00:10.556Z,11.67
2018-11-10T12:02:39.355Z,10.80
2018-11-10T12:05:09.190Z,11.00
2018-11-10T12:07:37.933Z,12.13
2018-11-10T12:10:07.338Z,11.40
2018-11-10T12:12:35.757Z,11.50
2018-11-10T12:15:04.134Z,12.67
2018-11-10T12:17:32.878Z,11.00
2018-11-10T12:20:01.270Z,12.53
2018-11-10T12:22:29.579Z,12.87
2018-11-10T12:24:57.863Z,10.87
2018-11-10T12:27:26.747Z,12.13
2018-11-10T12:29:55.211Z,12.20
2018-11-10T12:32:24.024Z,11.85
2018-11-10T12:34:52.596Z,12.90
2018-11-10T12:37:20.898Z,14.23
2018-11-10T12:39:49.301Z,13.15
2018-11-10T12:42:17.843Z,13.43
2018-11-10T12:44:46.243Z,13.70
2018-11-10T12:47:14.781Z,12.50
2018-11-10T12:49:43.072Z,13.27
2018-11-10T12:52:11.689Z,15.48
2018-11-10T12:54:40.121Z,13.90
2018-11-10T12:57:08.682Z,13.05
2018-11-10T12:59:37.019Z,12.80
2018-11-10T13:02:05.331Z,12.43
2018-11-10T13:04:33.579Z,12.30
2018-11-10T13:07:02.081Z,11.83
2018-11-10T13:09:30.624Z,12.50
2018-11-10T13:11:58.932Z,12.10
2018-11-10T13:14:27.451Z,13.03
2018-11-10T13:16:56.163Z,12.70
2018-11-10T13:19:24.604Z,12.57
2018-11-10T13:21:53.262Z,13.03
2018-11-10T13:24:21.813Z,13.25
2018-11-10T13:26:50.734Z,13.20
2018-11-10T13:29:19.581Z,12.80
2018-11-10T13:31:48.361Z,14.55
2018-11-10T13:34:17.059Z,13.80
2018-11-10T13:36:45.337Z,15.80
2018-11-10T13:39:13.866Z,15.57
2018-11-10T13:41:42.277Z,16.90
2018-11-10T13:44:11.079Z,16.50
2018-11-10T13:46:39.961Z,16.57
2018-11-10T13:49:08.246Z,16.33
2018-11-10T13:51:37.345Z,17.73
2018-11-10T13:54:06.048Z,19.40
2018-11-10T13:56:34.627Z,18.27
2018-11-10T13:59:03.020Z,19.40
2018-11-10T14:01:31.578Z,21.57
2018-11-10T14:04:00.112Z,21.87
2018-11-10T14:06:28.381Z,19.50
2018-11-10T14:08:56.743Z,21.90
2018-11-10T14:11:24.991Z,21.30
2018-11-10T14:13:53.543Z,21.00
2018-11-10T14:16:22.968Z,18.20
2018-11-10T14:18:51.536Z,23.22
2018-11-10T14:21:20.116Z,21.25
2018-11-10T14:23:48.386Z,23.67
2018-11-10T14:26:16.681Z,22.83
2018-11-10T14:28:45.163Z,21.20
2018-11-10T14:31:13.627Z,21.30
2018-11-10T14:33:42.171Z,23.60
2018-11-10T14:36:10.601Z,24.00
2018-11-10T14:38:38.864Z,23.63
2018-11-10T14:41:07.162Z,21.90
2018-11-10T14:43:35.506Z,23.03
2018-11-10T14:46:04.087Z,23.60
2018-11-10T14:48:32.351Z,22.73
2018-11-10T14:51:00.899Z,24.57
2018-11-10T14:53:29.460Z,24.60
2018-11-10T14:55:58.265Z,24.77
2018-11-10T14:58:26.612Z,24.57
2018-11-10T15:00:55.024Z,25.20
2018-11-10T15:03:23.284Z,23.03
2018-11-10T15:05:51.865Z,26.00
2018-11-10T15:08:20.429Z,25.32
2018-11-10T15:10:48.671Z,25.50
2018-11-10T15:13:17.560Z,27.37
2018-11-10T15:15:45.848Z,26.70
2018-11-10T15:18:14.231Z,24.77
2018-11-10T15:20:42.732Z,26.93
2018-11-10T15:23:11.003Z,25.83
2018-11-10T15:25:39.252Z,28.40
2018-11-10T15:28:07.960Z,27.40
2018-11-10T15:30:36.826Z,29.40
2018-11-10T15:33:05.682Z,27.80
2018-11-10T15:35:34.236Z,26.87
2018-11-10T15:38:02.779Z,27.48
2018-11-10T15:40:32.942Z,27.47
2018-11-10T15:43:02.480Z,25.93
2018-11-10T15:45:30.727Z,27.00
2018-11-10T15:47:59.576Z,26.20
2018-11-10T15:50:27.920Z,24.70
2018-11-10T15:52:56.880Z,24.63
2018-11-10T15:55:25.155Z,24.10
2018-11-10T15:57:53.443Z,25.50
2018-11-10T16:00:21.987Z,21.90
2018-11-10T16:02:50.443Z,23.30
2018-11-10T16:05:19.040Z,22.97
2018-11-10T16:07:47.460Z,21.53
2018-11-10T16:10:16.134Z,22.03
2018-11-10T16:12:44.923Z,23.62
2018-11-10T16:15:15.406Z,22.77
2018-11-10T16:17:44.655Z,22.30
2018-11-10T16:20:15.216Z,21.83
2018-11-10T16:22:44.958Z,24.23
2018-11-10T16:25:13.904Z,20.10
2018-11-10T16:27:42.229Z,22.63
2018-11-10T16:30:12.709Z,22.13
2018-11-10T16:32:41.640Z,23.73
2018-11-10T16:35:09.976Z,22.73
2018-11-10T16:37:38.867Z,24.10
2018-11-10T16:40:09.126Z,23.03
2018-11-10T16:42:37.707Z,20.55
2018-11-10T16:45:06.776Z,22.60
2018-11-10T16:47:35.328Z,20.65
2018-11-10T16:50:04.601Z,20.30
2018-11-10T16:52:33.151Z,20.07
2018-11-10T16:55:02.119Z,21.30
2018-11-10T16:57:30.639Z,22.50
2018-11-10T16:59:59.031Z,21.60
2018-11-10T17:02:27.468Z,20.40
2018-11-10T17:04:55.748Z,22.87
2018-11-10T17:07:24.282Z,22.83
2018-11-10T17:09:52.630Z,20.87
2018-11-10T17:12:21.195Z,20.60
2018-11-10T17:14:49.459Z,22.17
2018-11-10T17:17:17.715Z,20.80
2018-11-10T17:19:46.119Z,20.60
2018-11-10T17:22:14.489Z,21.10
2018-11-10T17:24:43.028Z,22.13
2018-11-10T17:27:11.350Z,21.70
2018-11-10T17:29:40.331Z,23.20
2018-11-10T17:32:08.598Z,19.43
2018-11-10T17:34:37.106Z,21.17
2018-11-10T17:37:06.201Z,21.40
2018-11-10T17:39:34.564Z,22.30
2018-11-10T17:42:03.482Z,21.70
2018-11-10T17:44:32.179Z,20.95
2018-11-10T17:47:00.745Z,20.35
2018-11-10T17:49:29.053Z,19.00
2018-11-10T17:51:57.666Z,20.70
2018-11-10T17:54:26.261Z,22.27
2018-11-10T17:56:55.253Z,22.20
2018-11-10T17:59:23.777Z,22.00
2018-11-10T18:01:52.262Z,21.90
2018-11-10T18:04:20.847Z,21.75
2018-11-10T18:06:49.556Z,22.30
2018-11-10T18:09:17.831Z,21.03
2018-11-10T18:11:46.680Z,19.70
2018-11-10T18:14:14.981Z,19.37
2018-11-10T18:16:43.568Z,20.07
2018-11-10T18:19:12.440Z,23.25
2018-11-10T18:21:41.430Z,22.33
2018-11-10T18:24:09.701Z,22.07
2018-11-10T18:26:39.124Z,21.40
2018-11-10T18:29:07.551Z,24.00
2018-11-10T18:31:36.035Z,24.30
2018-11-10T18:34:04.760Z,25.20
2018-11-10T18:36:33.215Z,28.60
2018-11-10T18:39:02.253Z,28.55
2018-11-10T18:41:30.727Z,28.13
2018-11-10T18:43:58.983Z,27.13
2018-11-10T18:46:27.621Z,29.67
2018-11-10T18:48:55.937Z,29.30
2018-11-10T18:51:25.020Z,30.93
2018-11-10T18:53:54.209Z,29.20
2018-11-10T18:56:22.796Z,28.52
2018-11-10T18:58:51.364Z,30.88
2018-11-10T19:01:20.516Z,31.57
2018-11-10T19:03:50.594Z,31.07
2018-11-10T19:06:19.478Z,30.67
2018-11-10T19:08:47.894Z,32.43
2018-11-10T19:11:16.909Z,33.23
2018-11-10T19:13:46.235Z,33.48
2018-11-10T19:16:14.932Z,34.47
2018-11-10T19:18:43.742Z,32.47
2018-11-10T19:21:12.105Z,33.73
2018-11-10T19:23:40.992Z,29.27
2018-11-10T19:26:09.298Z,32.27
2018-11-10T19:28:37.679Z,29.50
2018-11-10T19:31:06.767Z,32.90
2018-11-10T19:33:35.314Z,31.57
2018-11-10T19:36:04.048Z,29.40
2018-11-10T19:38:32.564Z,30.33
2018-11-10T19:41:01.535Z,29.70
2018-11-10T19:43:29.877Z,31.20
2018-11-10T19:45:58.367Z,33.00
2018-11-10T19:48:26.798Z,31.07
2018-11-10T19:50:55.656Z,33.27
2018-11-10T19:53:24.632Z,28.38
2018-11-10T19:55:53.565Z,33.33
2018-11-10T19:58:21.840Z,32.70
2018-11-10T20:00:51.054Z,30.20
2018-11-10T20:03:19.703Z,32.03
2018-11-10T20:05:48.022Z,33.03
2018-11-10T20:08:16.927Z,30.70
2018-11-10T20:10:45.854Z,31.10
2018-11-10T20:13:14.686Z,30.40
2018-11-10T20:15:43.151Z,30.77
2018-11-10T20:18:11.460Z,33.10
2018-11-10T20:20:40.087Z,31.07
2018-11-10T20:23:08.667Z,31.80
2018-11-10T20:25:37.540Z,32.87
2018-11-10T20:28:06.173Z,32.17
2018-11-10T20:30:35.465Z,34.43
2018-11-10T20:33:03.761Z,32.80
2018-11-10T20:35:32.031Z,31.23
2018-11-10T20:38:00.541Z,33.57
2018-11-10T20:40:29.072Z,29.50
2018-11-10T20:42:57.779Z,37.07
2018-11-10T20:45:26.045Z,32.17
2018-11-10T20:47:54.751Z,29.80
2018-11-10T20:50:23.531Z,31.52
2018-11-10T20:52:52.607Z,29.80
2018-11-10T20:55:21.184Z,31.30
2018-11-10T20:57:49.952Z,30.80
2018-11-10T21:00:19.835Z,30.23
2018-11-10T21:02:48.221Z,29.77
2018-11-10T21:05:16.609Z,30.90
2018-11-10T21:07:44.971Z,26.30
2018-11-10T21:10:15.203Z,26.30
2018-11-10T21:12:45.004Z,31.02
2018-11-10T21:15:14.068Z,26.73
2018-11-10T21:17:42.790Z,27.93
2018-11-10T21:20:12.043Z,28.07
2018-11-10T21:22:40.779Z,28.43
2018-11-10T21:25:10.660Z,27.13
2018-11-10T21:27:40.280Z,26.25
2018-11-10T21:30:09.868Z,26.57
2018-11-10T21:32:38.290Z,28.20
2018-11-10T21:35:07.691Z,25.23
2018-11-10T21:37:36.539Z,25.10
2018-11-10T21:40:08.300Z,27.70
2018-11-10T21:42:36.584Z,24.37
2018-11-10T21:45:06.319Z,28.10
2018-11-10T21:47:34.631Z,24.83
2018-11-10T21:50:02.995Z,28.20
2018-11-10T21:52:31.245Z,28.27
2018-11-10T21:54:59.660Z,30.70
2018-11-10T21:57:28.137Z,26.73
2018-11-10T21:59:56.675Z,26.53
2018-11-10T22:02:25.014Z,29.07
2018-11-10T22:04:53.725Z,26.27
2018-11-10T22:07:22.058Z,28.33
2018-11-10T22:09:50.681Z,27.62
2018-11-10T22:12:19.416Z,29.55
2018-11-10T22:14:47.968Z,24.95
2018-11-10T22:17:16.682Z,26.68
2018-11-10T22:19:44.951Z,28.67
2018-11-10T22:22:13.327Z,27.17
2018-11-10T22:24:41.848Z,26.27
2018-11-10T22:27:10.135Z,25.77
2018-11-10T22:29:38.387Z,24.73
2018-11-10T22:32:06.808Z,23.57
2018-11-10T22:34:35.081Z,24.17
2018-11-10T22:37:03.912Z,25.90
2018-11-10T22:39:32.217Z,25.60
2018-11-10T22:42:00.526Z,25.03
2018-11-10T22:44:28.787Z,24.50
2018-11-10T22:46:57.117Z,25.77
2018-11-10T22:49:25.392Z,28.43
2018-11-10T22:51:53.970Z,27.50
2018-11-10T22:54:22.542Z,24.47
2018-11-10T22:56:51.179Z,25.67
2018-11-10T22:59:19.907Z,26.60
2018-11-10T23:01:48.522Z,26.20
2018-11-10T23:04:16.876Z,25.47
2018-11-10T23:06:45.748Z,22.70
2018-11-10T23:09:14.390Z,23.50
2018-11-10T23:11:42.664Z,23.00
2018-11-10T23:14:11.015Z,20.63
2018-11-10T23:16:39.605Z,20.77
2018-11-10T23:19:07.892Z,22.33
2018-11-10T23:21:36.609Z,23.23
2018-11-10T23:24:05.707Z,21.70
2018-11-10T23:26:34.016Z,23.27
2018-11-10T23:29:02.580Z,22.70
2018-11-10T23:31:31.056Z,22.27
2018-11-10T23:33:59.609Z,22.37
2018-11-10T23:36:28.163Z,21.00
2018-11-10T23:38:56.841Z,25.00
2018-11-10T23:41:25.359Z,21.50
2018-11-10T23:43:53.913Z,20.12
2018-11-10T23:46:22.368Z,21.37
2018-11-10T23:48:50.816Z,21.17
2018-11-10T23:51:19.524Z,21.37
2018-11-10T23:53:48.015Z,21.70
2018-11-10T23:56:16.565Z,21.65
2018-11-10T23:58:45.121Z,21.80
